sensor_id;sensor_type;location;lat;lon;timestamp;P1;durP1;ratioP1;P2;durP2;ratioP2
10894;SDS011;5500;49.886;8.074;2022-11-20T00:00:42;27.93;;;20.33;;
10894;SDS011;5500;49.886;8.074;2022-11-20T00:03:10;30.53;;;21.30;;
10894;SDS011;5500;49.886;8.074;2022-11-20T00:05:38;26.67;;;20.13;;
10894;SDS011;5500;49.886;8.074;2022-11-20T00:08:05;27.53;;;19.93;;
10894;SDS011;5500;49.886;8.074;2022-11-20T00:10:37;25.53;;;19.53;;
10894;SDS011;5500;49.886;8.074;2022-11-20T00:13:04;28.80;;;20.50;;
10894;SDS011;5500;49.886;8.074;2022-11-20T00:15:32;29.60;;;19.77;;
10894;SDS011;5500;49.886;8.074;2022-11-20T00:18:00;27.23;;;20.53;;
10894;SDS011;5500;49.886;8.074;2022-11-20T00:20:28;32.43;;;20.07;;
10894;SDS011;5500;49.886;8.074;2022-11-20T00:22:56;25.80;;;19.40;;
10894;SDS011;5500;49.886;8.074;2022-11-20T00:25:24;28.37;;;18.90;;
10894;SDS011;5500;49.886;8.074;2022-11-20T00:27:53;27.53;;;18.70;;
10894;SDS011;5500;49.886;8.074;2022-11-20T00:30:21;25.70;;;20.07;;
10894;SDS011;5500;49.886;8.074;2022-11-20T00:32:48;30.50;;;19.87;;
10894;SDS011;5500;49.886;8.074;2022-11-20T00:35:17;26.73;;;19.90;;
10894;SDS011;5500;49.886;8.074;2022-11-20T00:37:45;30.53;;;19.70;;
10894;SDS011;5500;49.886;8.074;2022-11-20T00:40:13;29.27;;;20.27;;
10894;SDS011;5500;49.886;8.074;2022-11-20T00:42:41;26.80;;;20.73;;
10894;SDS011;5500;49.886;8.074;2022-11-20T00:45:10;28.13;;;19.13;;
10894;SDS011;5500;49.886;8.074;2022-11-20T00:47:37;30.37;;;20.40;;
10894;SDS011;5500;49.886;8.074;2022-11-20T00:50:05;28.43;;;19.80;;
10894;SDS011;5500;49.886;8.074;2022-11-20T00:52:33;29.23;;;20.57;;
10894;SDS011;5500;49.886;8.074;2022-11-20T00:55:01;26.63;;;18.97;;
10894;SDS011;5500;49.886;8.074;2022-11-20T00:57:29;25.80;;;18.87;;
10894;SDS011;5500;49.886;8.074;2022-11-20T00:59:57;28.83;;;20.10;;
10894;SDS011;5500;49.886;8.074;2022-11-20T01:02:26;31.27;;;20.83;;
10894;SDS011;5500;49.886;8.074;2022-11-20T01:04:53;28.43;;;20.50;;
10894;SDS011;5500;49.886;8.074;2022-11-20T01:07:21;24.73;;;18.40;;
10894;SDS011;5500;49.886;8.074;2022-11-20T01:09:49;29.00;;;20.10;;
10894;SDS011;5500;49.886;8.074;2022-11-20T01:12:16;27.73;;;20.67;;
10894;SDS011;5500;49.886;8.074;2022-11-20T01:14:44;28.90;;;20.13;;
10894;SDS011;5500;49.886;8.074;2022-11-20T01:17:12;27.77;;;19.07;;
10894;SDS011;5500;49.886;8.074;2022-11-20T01:19:41;26.37;;;19.23;;
10894;SDS011;5500;49.886;8.074;2022-11-20T01:22:09;26.37;;;20.50;;
10894;SDS011;5500;49.886;8.074;2022-11-20T01:24:37;33.60;;;20.93;;
10894;SDS011;5500;49.886;8.074;2022-11-20T01:27:04;29.40;;;20.80;;
10894;SDS011;5500;49.886;8.074;2022-11-20T01:29:32;32.83;;;20.67;;
10894;SDS011;5500;49.886;8.074;2022-11-20T01:32:00;29.27;;;20.13;;
10894;SDS011;5500;49.886;8.074;2022-11-20T01:34:27;28.17;;;20.53;;
10894;SDS011;5500;49.886;8.074;2022-11-20T01:36:57;25.83;;;19.00;;
10894;SDS011;5500;49.886;8.074;2022-11-20T01:39:25;27.87;;;20.13;;
10894;SDS011;5500;49.886;8.074;2022-11-20T01:41:54;28.93;;;19.60;;
10894;SDS011;5500;49.886;8.074;2022-11-20T01:44:45;27.80;;;20.47;;
10894;SDS011;5500;49.886;8.074;2022-11-20T01:47:16;28.03;;;20.23;;
10894;SDS011;5500;49.886;8.074;2022-11-20T01:49:48;30.03;;;21.13;;
10894;SDS011;5500;49.886;8.074;2022-11-20T01:52:20;33.07;;;20.37;;
10894;SDS011;5500;49.886;8.074;2022-11-20T01:54:50;28.67;;;21.30;;
10894;SDS011;5500;49.886;8.074;2022-11-20T01:57:21;27.30;;;20.57;;
10894;SDS011;5500;49.886;8.074;2022-11-20T01:59:50;33.20;;;21.37;;
10894;SDS011;5500;49.886;8.074;2022-11-20T02:02:21;32.37;;;19.80;;
10894;SDS011;5500;49.886;8.074;2022-11-20T02:04:49;30.83;;;20.80;;
10894;SDS011;5500;49.886;8.074;2022-11-20T02:07:20;26.43;;;19.97;;
10894;SDS011;5500;49.886;8.074;2022-11-20T02:09:52;29.07;;;20.60;;
10894;SDS011;5500;49.886;8.074;2022-11-20T02:12:24;33.47;;;22.83;;
10894;SDS011;5500;49.886;8.074;2022-11-20T02:15:13;31.00;;;20.27;;
10894;SDS011;5500;49.886;8.074;2022-11-20T02:17:42;30.07;;;21.23;;
10894;SDS011;5500;49.886;8.074;2022-11-20T02:20:11;33.43;;;21.73;;
10894;SDS011;5500;49.886;8.074;2022-11-20T02:22:46;27.30;;;20.53;;
10894;SDS011;5500;49.886;8.074;2022-11-20T02:25:21;30.30;;;21.17;;
10894;SDS011;5500;49.886;8.074;2022-11-20T02:27:51;27.37;;;19.83;;
10894;SDS011;5500;49.886;8.074;2022-11-20T02:30:22;30.30;;;20.63;;
10894;SDS011;5500;49.886;8.074;2022-11-20T02:32:50;28.73;;;21.17;;
10894;SDS011;5500;49.886;8.074;2022-11-20T02:35:41;37.87;;;21.47;;
10894;SDS011;5500;49.886;8.074;2022-11-20T02:38:11;29.97;;;21.73;;
10894;SDS011;5500;49.886;8.074;2022-11-20T02:40:42;31.23;;;21.87;;
10894;SDS011;5500;49.886;8.074;2022-11-20T02:43:10;28.60;;;20.60;;
10894;SDS011;5500;49.886;8.074;2022-11-20T02:45:38;29.20;;;20.00;;
10894;SDS011;5500;49.886;8.074;2022-11-20T02:48:09;29.10;;;20.20;;
10894;SDS011;5500;49.886;8.074;2022-11-20T02:50:39;29.87;;;21.27;;
10894;SDS011;5500;49.886;8.074;2022-11-20T02:53:10;31.40;;;21.50;;
10894;SDS011;5500;49.886;8.074;2022-11-20T02:55:42;29.83;;;20.63;;
10894;SDS011;5500;49.886;8.074;2022-11-20T02:58:11;29.53;;;20.53;;
10894;SDS011;5500;49.886;8.074;2022-11-20T03:00:40;30.57;;;20.57;;
10894;SDS011;5500;49.886;8.074;2022-11-20T03:03:08;33.17;;;21.17;;
10894;SDS011;5500;49.886;8.074;2022-11-20T03:05:37;29.77;;;20.27;;
10894;SDS011;5500;49.886;8.074;2022-11-20T03:08:05;28.10;;;21.00;;
10894;SDS011;5500;49.886;8.074;2022-11-20T03:10:34;30.27;;;20.27;;
10894;SDS011;5500;49.886;8.074;2022-11-20T03:13:07;28.93;;;20.57;;
10894;SDS011;5500;49.886;8.074;2022-11-20T03:15:39;30.77;;;21.63;;
10894;SDS011;5500;49.886;8.074;2022-11-20T03:18:09;34.27;;;21.50;;
10894;SDS011;5500;49.886;8.074;2022-11-20T03:20:37;31.50;;;21.10;;
10894;SDS011;5500;49.886;8.074;2022-11-20T03:23:05;30.63;;;21.63;;
10894;SDS011;5500;49.886;8.074;2022-11-20T03:25:34;32.30;;;21.17;;
10894;SDS011;5500;49.886;8.074;2022-11-20T03:28:03;29.43;;;19.67;;
10894;SDS011;5500;49.886;8.074;2022-11-20T03:30:32;31.07;;;19.93;;
10894;SDS011;5500;49.886;8.074;2022-11-20T03:33:00;30.43;;;21.20;;
10894;SDS011;5500;49.886;8.074;2022-11-20T03:35:27;28.63;;;20.07;;
10894;SDS011;5500;49.886;8.074;2022-11-20T03:37:59;25.47;;;19.17;;
10894;SDS011;5500;49.886;8.074;2022-11-20T03:40:30;31.47;;;20.90;;
10894;SDS011;5500;49.886;8.074;2022-11-20T03:42:59;30.47;;;20.93;;
10894;SDS011;5500;49.886;8.074;2022-11-20T03:45:27;26.90;;;19.90;;
10894;SDS011;5500;49.886;8.074;2022-11-20T03:47:56;32.33;;;20.97;;
10894;SDS011;5500;49.886;8.074;2022-11-20T03:50:24;28.00;;;20.60;;
10894;SDS011;5500;49.886;8.074;2022-11-20T03:52:52;27.93;;;20.63;;
10894;SDS011;5500;49.886;8.074;2022-11-20T03:55:21;33.90;;;22.53;;
10894;SDS011;5500;49.886;8.074;2022-11-20T03:57:50;31.03;;;21.13;;
10894;SDS011;5500;49.886;8.074;2022-11-20T04:00:18;31.60;;;21.07;;
10894;SDS011;5500;49.886;8.074;2022-11-20T04:02:46;29.80;;;20.43;;
10894;SDS011;5500;49.886;8.074;2022-11-20T04:05:16;30.47;;;21.10;;
10894;SDS011;5500;49.886;8.074;2022-11-20T04:07:44;32.30;;;21.43;;
10894;SDS011;5500;49.886;8.074;2022-11-20T04:10:13;29.90;;;20.47;;
10894;SDS011;5500;49.886;8.074;2022-11-20T04:12:42;31.23;;;21.30;;
10894;SDS011;5500;49.886;8.074;2022-11-20T04:15:10;30.30;;;21.20;;
10894;SDS011;5500;49.886;8.074;2022-11-20T04:17:39;31.93;;;21.47;;
10894;SDS011;5500;49.886;8.074;2022-11-20T04:20:08;33.80;;;23.23;;
10894;SDS011;5500;49.886;8.074;2022-11-20T04:22:41;29.67;;;19.87;;
10894;SDS011;5500;49.886;8.074;2022-11-20T04:25:09;29.90;;;20.60;;
10894;SDS011;5500;49.886;8.074;2022-11-20T04:27:38;28.63;;;20.13;;
10894;SDS011;5500;49.886;8.074;2022-11-20T04:30:06;27.23;;;19.83;;
10894;SDS011;5500;49.886;8.074;2022-11-20T04:32:36;33.27;;;22.13;;
10894;SDS011;5500;49.886;8.074;2022-11-20T04:35:05;30.13;;;20.23;;
10894;SDS011;5500;49.886;8.074;2022-11-20T04:37:34;31.63;;;21.17;;
10894;SDS011;5500;49.886;8.074;2022-11-20T04:40:04;32.43;;;21.77;;
10894;SDS011;5500;49.886;8.074;2022-11-20T04:42:33;31.60;;;21.00;;
10894;SDS011;5500;49.886;8.074;2022-11-20T04:45:02;32.13;;;20.70;;
10894;SDS011;5500;49.886;8.074;2022-11-20T04:47:31;30.50;;;21.00;;
10894;SDS011;5500;49.886;8.074;2022-11-20T04:49:59;29.23;;;20.10;;
10894;SDS011;5500;49.886;8.074;2022-11-20T04:52:28;31.37;;;20.63;;
10894;SDS011;5500;49.886;8.074;2022-11-20T04:54:57;34.00;;;21.30;;
10894;SDS011;5500;49.886;8.074;2022-11-20T04:57:27;34.50;;;21.60;;
10894;SDS011;5500;49.886;8.074;2022-11-20T04:59:55;35.20;;;22.83;;
10894;SDS011;5500;49.886;8.074;2022-11-20T05:02:23;32.90;;;22.17;;
10894;SDS011;5500;49.886;8.074;2022-11-20T05:04:50;36.53;;;23.40;;
10894;SDS011;5500;49.886;8.074;2022-11-20T05:07:18;36.73;;;22.90;;
10894;SDS011;5500;49.886;8.074;2022-11-20T05:09:46;34.03;;;23.20;;
10894;SDS011;5500;49.886;8.074;2022-11-20T05:12:13;35.00;;;22.23;;
10894;SDS011;5500;49.886;8.074;2022-11-20T05:14:42;35.23;;;22.27;;
10894;SDS011;5500;49.886;8.074;2022-11-20T05:17:10;31.50;;;21.23;;
10894;SDS011;5500;49.886;8.074;2022-11-20T05:19:38;33.13;;;21.93;;
10894;SDS011;5500;49.886;8.074;2022-11-20T05:22:06;36.63;;;22.90;;
10894;SDS011;5500;49.886;8.074;2022-11-20T05:24:33;34.53;;;23.03;;
10894;SDS011;5500;49.886;8.074;2022-11-20T05:27:01;28.93;;;21.13;;
10894;SDS011;5500;49.886;8.074;2022-11-20T05:29:29;31.93;;;20.40;;
10894;SDS011;5500;49.886;8.074;2022-11-20T05:31:58;28.80;;;20.17;;
10894;SDS011;5500;49.886;8.074;2022-11-20T05:34:25;29.13;;;20.43;;
10894;SDS011;5500;49.886;8.074;2022-11-20T05:36:53;33.37;;;22.33;;
10894;SDS011;5500;49.886;8.074;2022-11-20T05:39:20;30.57;;;20.90;;
10894;SDS011;5500;49.886;8.074;2022-11-20T05:41:48;30.00;;;20.43;;
10894;SDS011;5500;49.886;8.074;2022-11-20T05:44:36;30.10;;;20.03;;
10894;SDS011;5500;49.886;8.074;2022-11-20T05:47:05;28.87;;;19.13;;
10894;SDS011;5500;49.886;8.074;2022-11-20T05:49:33;29.47;;;20.20;;
10894;SDS011;5500;49.886;8.074;2022-11-20T05:52:00;28.77;;;20.03;;
10894;SDS011;5500;49.886;8.074;2022-11-20T05:54:28;28.60;;;19.87;;
10894;SDS011;5500;49.886;8.074;2022-11-20T05:56:56;34.07;;;21.67;;
10894;SDS011;5500;49.886;8.074;2022-11-20T05:59:23;30.77;;;21.30;;
10894;SDS011;5500;49.886;8.074;2022-11-20T06:01:51;30.40;;;20.37;;
10894;SDS011;5500;49.886;8.074;2022-11-20T06:04:20;27.53;;;19.43;;
10894;SDS011;5500;49.886;8.074;2022-11-20T06:06:47;30.60;;;20.07;;
10894;SDS011;5500;49.886;8.074;2022-11-20T06:09:15;30.77;;;20.70;;
10894;SDS011;5500;49.886;8.074;2022-11-20T06:11:42;32.43;;;20.77;;
10894;SDS011;5500;49.886;8.074;2022-11-20T06:14:10;32.53;;;21.07;;
10894;SDS011;5500;49.886;8.074;2022-11-20T06:16:38;34.33;;;22.43;;
10894;SDS011;5500;49.886;8.074;2022-11-20T06:19:05;29.73;;;21.00;;
10894;SDS011;5500;49.886;8.074;2022-11-20T06:21:34;31.20;;;19.83;;
10894;SDS011;5500;49.886;8.074;2022-11-20T06:24:02;32.13;;;20.43;;
10894;SDS011;5500;49.886;8.074;2022-11-20T06:26:30;33.83;;;21.60;;
10894;SDS011;5500;49.886;8.074;2022-11-20T06:28:57;33.00;;;20.83;;
10894;SDS011;5500;49.886;8.074;2022-11-20T06:31:25;32.60;;;20.17;;
10894;SDS011;5500;49.886;8.074;2022-11-20T06:33:53;34.60;;;21.70;;
10894;SDS011;5500;49.886;8.074;2022-11-20T06:36:22;31.20;;;21.20;;
10894;SDS011;5500;49.886;8.074;2022-11-20T06:38:51;33.80;;;22.27;;
10894;SDS011;5500;49.886;8.074;2022-11-20T06:41:19;32.83;;;20.73;;
10894;SDS011;5500;49.886;8.074;2022-11-20T06:43:48;26.57;;;18.87;;
10894;SDS011;5500;49.886;8.074;2022-11-20T06:46:17;29.83;;;20.27;;
10894;SDS011;5500;49.886;8.074;2022-11-20T06:48:46;28.37;;;19.07;;
10894;SDS011;5500;49.886;8.074;2022-11-20T06:51:14;29.30;;;19.87;;
10894;SDS011;5500;49.886;8.074;2022-11-20T06:53:42;27.63;;;18.80;;
10894;SDS011;5500;49.886;8.074;2022-11-20T06:56:12;29.20;;;20.03;;
10894;SDS011;5500;49.886;8.074;2022-11-20T06:58:40;30.63;;;21.17;;
10894;SDS011;5500;49.886;8.074;2022-11-20T07:01:09;29.33;;;20.33;;
10894;SDS011;5500;49.886;8.074;2022-11-20T07:03:43;30.20;;;19.00;;
10894;SDS011;5500;49.886;8.074;2022-11-20T07:06:18;25.53;;;18.40;;
10894;SDS011;5500;49.886;8.074;2022-11-20T07:08:45;26.20;;;17.77;;
10894;SDS011;5500;49.886;8.074;2022-11-20T07:11:15;25.83;;;17.73;;
10894;SDS011;5500;49.886;8.074;2022-11-20T07:13:43;26.67;;;17.97;;
10894;SDS011;5500;49.886;8.074;2022-11-20T07:16:11;25.40;;;17.17;;
10894;SDS011;5500;49.886;8.074;2022-11-20T07:18:38;25.17;;;17.83;;
10894;SDS011;5500;49.886;8.074;2022-11-20T07:21:12;25.80;;;18.63;;
10894;SDS011;5500;49.886;8.074;2022-11-20T07:23:40;26.20;;;18.37;;
10894;SDS011;5500;49.886;8.074;2022-11-20T07:26:08;26.10;;;17.83;;
10894;SDS011;5500;49.886;8.074;2022-11-20T07:28:39;27.33;;;18.73;;
10894;SDS011;5500;49.886;8.074;2022-11-20T07:31:07;24.67;;;18.60;;
10894;SDS011;5500;49.886;8.074;2022-11-20T07:33:41;27.47;;;18.80;;
10894;SDS011;5500;49.886;8.074;2022-11-20T07:36:08;24.30;;;17.03;;
10894;SDS011;5500;49.886;8.074;2022-11-20T07:38:36;28.80;;;19.77;;
10894;SDS011;5500;49.886;8.074;2022-11-20T07:41:04;25.20;;;17.77;;
10894;SDS011;5500;49.886;8.074;2022-11-20T07:43:32;26.57;;;18.93;;
10894;SDS011;5500;49.886;8.074;2022-11-20T07:46:07;28.00;;;18.80;;
10894;SDS011;5500;49.886;8.074;2022-11-20T07:48:35;24.87;;;17.37;;
10894;SDS011;5500;49.886;8.074;2022-11-20T07:51:03;23.90;;;17.77;;
10894;SDS011;5500;49.886;8.074;2022-11-20T07:53:31;24.60;;;17.70;;
10894;SDS011;5500;49.886;8.074;2022-11-20T07:55:59;22.70;;;16.60;;
10894;SDS011;5500;49.886;8.074;2022-11-20T07:58:28;23.77;;;17.50;;
10894;SDS011;5500;49.886;8.074;2022-11-20T08:00:56;29.23;;;19.30;;
10894;SDS011;5500;49.886;8.074;2022-11-20T08:03:25;27.00;;;19.00;;
10894;SDS011;5500;49.886;8.074;2022-11-20T08:05:53;25.17;;;17.53;;
10894;SDS011;5500;49.886;8.074;2022-11-20T08:08:21;25.77;;;17.70;;
10894;SDS011;5500;49.886;8.074;2022-11-20T08:10:48;22.40;;;16.07;;
10894;SDS011;5500;49.886;8.074;2022-11-20T08:13:16;22.97;;;17.17;;
10894;SDS011;5500;49.886;8.074;2022-11-20T08:16:01;21.77;;;15.63;;
10894;SDS011;5500;49.886;8.074;2022-11-20T08:18:31;22.47;;;17.10;;
10894;SDS011;5500;49.886;8.074;2022-11-20T08:21:01;26.70;;;17.90;;
10894;SDS011;5500;49.886;8.074;2022-11-20T08:23:29;24.00;;;17.83;;
10894;SDS011;5500;49.886;8.074;2022-11-20T08:25:57;24.03;;;17.37;;
10894;SDS011;5500;49.886;8.074;2022-11-20T08:28:24;27.07;;;18.43;;
10894;SDS011;5500;49.886;8.074;2022-11-20T08:30:57;25.73;;;17.77;;
10894;SDS011;5500;49.886;8.074;2022-11-20T08:33:25;24.27;;;17.33;;
10894;SDS011;5500;49.886;8.074;2022-11-20T08:35:57;23.63;;;17.17;;
10894;SDS011;5500;49.886;8.074;2022-11-20T08:38:26;25.23;;;16.90;;
10894;SDS011;5500;49.886;8.074;2022-11-20T08:40:55;24.33;;;17.27;;
10894;SDS011;5500;49.886;8.074;2022-11-20T08:43:41;22.33;;;16.80;;
10894;SDS011;5500;49.886;8.074;2022-11-20T08:46:09;25.13;;;17.67;;
10894;SDS011;5500;49.886;8.074;2022-11-20T08:48:37;23.67;;;17.50;;
10894;SDS011;5500;49.886;8.074;2022-11-20T08:51:06;27.67;;;19.40;;
10894;SDS011;5500;49.886;8.074;2022-11-20T08:53:35;28.23;;;19.27;;
10894;SDS011;5500;49.886;8.074;2022-11-20T08:56:03;22.40;;;17.30;;
10894;SDS011;5500;49.886;8.074;2022-11-20T08:58:31;23.17;;;16.07;;
10894;SDS011;5500;49.886;8.074;2022-11-20T09:01:19;20.87;;;15.13;;
10894;SDS011;5500;49.886;8.074;2022-11-20T09:03:47;19.50;;;14.70;;
10894;SDS011;5500;49.886;8.074;2022-11-20T09:06:16;19.33;;;13.83;;
10894;SDS011;5500;49.886;8.074;2022-11-20T09:08:44;17.87;;;13.73;;
10894;SDS011;5500;49.886;8.074;2022-11-20T09:11:12;19.67;;;14.63;;
10894;SDS011;5500;49.886;8.074;2022-11-20T09:13:39;18.23;;;14.03;;
10894;SDS011;5500;49.886;8.074;2022-11-20T09:16:08;19.67;;;14.50;;
10894;SDS011;5500;49.886;8.074;2022-11-20T09:18:36;15.87;;;12.40;;
10894;SDS011;5500;49.886;8.074;2022-11-20T09:21:05;14.27;;;10.90;;
10894;SDS011;5500;49.886;8.074;2022-11-20T09:23:35;15.43;;;12.30;;
10894;SDS011;5500;49.886;8.074;2022-11-20T09:26:04;17.67;;;13.03;;
10894;SDS011;5500;49.886;8.074;2022-11-20T09:28:32;15.87;;;12.70;;
10894;SDS011;5500;49.886;8.074;2022-11-20T09:31:00;14.43;;;11.77;;
10894;SDS011;5500;49.886;8.074;2022-11-20T09:33:28;17.63;;;14.17;;
10894;SDS011;5500;49.886;8.074;2022-11-20T09:35:55;16.77;;;13.03;;
10894;SDS011;5500;49.886;8.074;2022-11-20T09:38:23;15.20;;;12.43;;
10894;SDS011;5500;49.886;8.074;2022-11-20T09:40:55;17.67;;;14.23;;
10894;SDS011;5500;49.886;8.074;2022-11-20T09:43:27;20.53;;;16.00;;
10894;SDS011;5500;49.886;8.074;2022-11-20T09:46:04;16.37;;;13.30;;
10894;SDS011;5500;49.886;8.074;2022-11-20T09:48:37;16.07;;;12.53;;
10894;SDS011;5500;49.886;8.074;2022-11-20T09:51:13;16.93;;;14.03;;
10894;SDS011;5500;49.886;8.074;2022-11-20T09:53:52;22.13;;;18.07;;
10894;SDS011;5500;49.886;8.074;2022-11-20T09:56:29;23.67;;;17.43;;
10894;SDS011;5500;49.886;8.074;2022-11-20T09:58:57;21.03;;;16.37;;
10894;SDS011;5500;49.886;8.074;2022-11-20T10:01:29;19.00;;;14.70;;
10894;SDS011;5500;49.886;8.074;2022-11-20T10:03:59;22.57;;;15.50;;
10894;SDS011;5500;49.886;8.074;2022-11-20T10:06:29;16.90;;;13.60;;
10894;SDS011;5500;49.886;8.074;2022-11-20T10:09:03;20.40;;;15.33;;
10894;SDS011;5500;49.886;8.074;2022-11-20T10:11:38;30.50;;;20.43;;
10894;SDS011;5500;49.886;8.074;2022-11-20T10:14:16;26.67;;;19.30;;
10894;SDS011;5500;49.886;8.074;2022-11-20T10:16:51;19.20;;;14.73;;
10894;SDS011;5500;49.886;8.074;2022-11-20T10:19:27;18.33;;;14.67;;
10894;SDS011;5500;49.886;8.074;2022-11-20T10:22:04;20.83;;;16.93;;
10894;SDS011;5500;49.886;8.074;2022-11-20T10:24:42;24.57;;;18.03;;
10894;SDS011;5500;49.886;8.074;2022-11-20T10:30:03;20.47;;;15.50;;
10894;SDS011;5500;49.886;8.074;2022-11-20T10:32:36;17.53;;;14.47;;
10894;SDS011;5500;49.886;8.074;2022-11-20T10:35:05;18.67;;;14.80;;
10894;SDS011;5500;49.886;8.074;2022-11-20T10:37:37;18.77;;;15.40;;
10894;SDS011;5500;49.886;8.074;2022-11-20T10:40:16;16.77;;;13.70;;
10894;SDS011;5500;49.886;8.074;2022-11-20T10:42:49;16.70;;;14.13;;
10894;SDS011;5500;49.886;8.074;2022-11-20T10:45:21;16.43;;;13.53;;
10894;SDS011;5500;49.886;8.074;2022-11-20T10:48:01;18.67;;;13.57;;
10894;SDS011;5500;49.886;8.074;2022-11-20T10:50:39;16.97;;;14.00;;
10894;SDS011;5500;49.886;8.074;2022-11-20T10:53:11;16.57;;;13.23;;
10894;SDS011;5500;49.886;8.074;2022-11-20T10:55:46;16.83;;;13.20;;
10894;SDS011;5500;49.886;8.074;2022-11-20T10:58:20;16.17;;;12.87;;
10894;SDS011;5500;49.886;8.074;2022-11-20T11:01:02;15.47;;;12.97;;
10894;SDS011;5500;49.886;8.074;2022-11-20T11:03:30;16.97;;;13.90;;
10894;SDS011;5500;49.886;8.074;2022-11-20T11:05:59;19.30;;;15.57;;
10894;SDS011;5500;49.886;8.074;2022-11-20T11:08:32;21.47;;;16.43;;
10894;SDS011;5500;49.886;8.074;2022-11-20T11:11:05;19.93;;;16.07;;
10894;SDS011;5500;49.886;8.074;2022-11-20T11:13:44;18.73;;;14.27;;
10894;SDS011;5500;49.886;8.074;2022-11-20T11:16:16;17.23;;;14.17;;
10894;SDS011;5500;49.886;8.074;2022-11-20T11:18:47;17.73;;;14.17;;
10894;SDS011;5500;49.886;8.074;2022-11-20T11:21:19;17.87;;;14.00;;
10894;SDS011;5500;49.886;8.074;2022-11-20T11:23:56;19.20;;;15.57;;
10894;SDS011;5500;49.886;8.074;2022-11-20T11:26:50;18.70;;;15.10;;
10894;SDS011;5500;49.886;8.074;2022-11-20T11:29:20;22.53;;;17.43;;
10894;SDS011;5500;49.886;8.074;2022-11-20T11:31:48;20.27;;;15.87;;
10894;SDS011;5500;49.886;8.074;2022-11-20T11:34:16;17.20;;;14.83;;
10894;SDS011;5500;49.886;8.074;2022-11-20T11:36:49;17.77;;;14.67;;
10894;SDS011;5500;49.886;8.074;2022-11-20T11:39:20;18.20;;;14.90;;
10894;SDS011;5500;49.886;8.074;2022-11-20T11:41:48;19.90;;;14.27;;
10894;SDS011;5500;49.886;8.074;2022-11-20T11:44:16;19.27;;;15.03;;
10894;SDS011;5500;49.886;8.074;2022-11-20T11:47:05;16.50;;;13.27;;
10894;SDS011;5500;49.886;8.074;2022-11-20T11:49:37;16.87;;;13.80;;
10894;SDS011;5500;49.886;8.074;2022-11-20T11:52:08;16.33;;;12.97;;
10894;SDS011;5500;49.886;8.074;2022-11-20T11:54:41;17.50;;;14.33;;
10894;SDS011;5500;49.886;8.074;2022-11-20T11:57:15;22.63;;;17.70;;
10894;SDS011;5500;49.886;8.074;2022-11-20T11:59:51;19.83;;;16.10;;
10894;SDS011;5500;49.886;8.074;2022-11-20T12:02:25;19.50;;;14.77;;
10894;SDS011;5500;49.886;8.074;2022-11-20T12:04:59;16.73;;;13.80;;
10894;SDS011;5500;49.886;8.074;2022-11-20T12:07:34;16.60;;;13.67;;
10894;SDS011;5500;49.886;8.074;2022-11-20T12:10:19;17.17;;;13.23;;
10894;SDS011;5500;49.886;8.074;2022-11-20T12:12:49;14.80;;;13.10;;
10894;SDS011;5500;49.886;8.074;2022-11-20T12:15:23;15.37;;;12.40;;
10894;SDS011;5500;49.886;8.074;2022-11-20T12:17:55;16.30;;;12.87;;
10894;SDS011;5500;49.886;8.074;2022-11-20T12:20:24;15.83;;;12.57;;
10894;SDS011;5500;49.886;8.074;2022-11-20T12:22:54;15.10;;;13.37;;
10894;SDS011;5500;49.886;8.074;2022-11-20T12:25:27;17.33;;;13.00;;
10894;SDS011;5500;49.886;8.074;2022-11-20T12:28:19;16.70;;;13.70;;
10894;SDS011;5500;49.886;8.074;2022-11-20T12:30:55;15.33;;;12.87;;
10894;SDS011;5500;49.886;8.074;2022-11-20T12:33:43;15.23;;;12.27;;
10894;SDS011;5500;49.886;8.074;2022-11-20T12:36:32;16.27;;;12.93;;
10894;SDS011;5500;49.886;8.074;2022-11-20T12:39:09;17.13;;;12.87;;
10894;SDS011;5500;49.886;8.074;2022-11-20T12:41:45;15.63;;;13.37;;
10894;SDS011;5500;49.886;8.074;2022-11-20T12:44:40;17.47;;;13.60;;
10894;SDS011;5500;49.886;8.074;2022-11-20T12:47:42;17.20;;;14.10;;
10894;SDS011;5500;49.886;8.074;2022-11-20T12:50:23;19.47;;;13.73;;
10894;SDS011;5500;49.886;8.074;2022-11-20T12:53:09;16.63;;;13.90;;
10894;SDS011;5500;49.886;8.074;2022-11-20T12:55:53;17.40;;;14.17;;
10894;SDS011;5500;49.886;8.074;2022-11-20T12:58:25;16.77;;;12.87;;
10894;SDS011;5500;49.886;8.074;2022-11-20T13:00:58;13.13;;;11.73;;
10894;SDS011;5500;49.886;8.074;2022-11-20T13:03:32;16.73;;;13.00;;
10894;SDS011;5500;49.886;8.074;2022-11-20T13:06:11;17.93;;;12.77;;
10894;SDS011;5500;49.886;8.074;2022-11-20T13:08:41;17.23;;;12.97;;
10894;SDS011;5500;49.886;8.074;2022-11-20T13:11:13;15.13;;;12.30;;
10894;SDS011;5500;49.886;8.074;2022-11-20T13:13:45;14.03;;;12.50;;
10894;SDS011;5500;49.886;8.074;2022-11-20T13:16:24;14.53;;;12.20;;
10894;SDS011;5500;49.886;8.074;2022-11-20T13:18:54;16.60;;;11.73;;
10894;SDS011;5500;49.886;8.074;2022-11-20T13:21:35;12.20;;;9.70;;
10894;SDS011;5500;49.886;8.074;2022-11-20T13:24:04;11.90;;;10.27;;
10894;SDS011;5500;49.886;8.074;2022-11-20T13:26:32;14.73;;;12.03;;
10894;SDS011;5500;49.886;8.074;2022-11-20T13:29:02;14.17;;;12.67;;
10894;SDS011;5500;49.886;8.074;2022-11-20T13:31:35;16.83;;;13.70;;
10894;SDS011;5500;49.886;8.074;2022-11-20T13:34:05;20.13;;;15.73;;
10894;SDS011;5500;49.886;8.074;2022-11-20T13:36:35;26.23;;;19.57;;
10894;SDS011;5500;49.886;8.074;2022-11-20T13:39:02;24.17;;;17.97;;
10894;SDS011;5500;49.886;8.074;2022-11-20T13:41:31;22.37;;;14.53;;
10894;SDS011;5500;49.886;8.074;2022-11-20T13:44:05;17.17;;;13.80;;
10894;SDS011;5500;49.886;8.074;2022-11-20T13:46:37;16.70;;;12.13;;
10894;SDS011;5500;49.886;8.074;2022-11-20T13:49:09;15.10;;;11.30;;
10894;SDS011;5500;49.886;8.074;2022-11-20T13:51:42;12.60;;;9.20;;
10894;SDS011;5500;49.886;8.074;2022-11-20T13:54:16;8.80;;;7.47;;
10894;SDS011;5500;49.886;8.074;2022-11-20T13:57:06;10.40;;;7.50;;
10894;SDS011;5500;49.886;8.074;2022-11-20T13:59:40;8.53;;;6.80;;
10894;SDS011;5500;49.886;8.074;2022-11-20T14:02:14;9.77;;;6.97;;
10894;SDS011;5500;49.886;8.074;2022-11-20T14:04:43;9.37;;;7.00;;
10894;SDS011;5500;49.886;8.074;2022-11-20T14:07:14;10.60;;;7.40;;
10894;SDS011;5500;49.886;8.074;2022-11-20T14:09:49;9.37;;;5.77;;
10894;SDS011;5500;49.886;8.074;2022-11-20T14:12:19;7.90;;;5.87;;
10894;SDS011;5500;49.886;8.074;2022-11-20T14:14:48;7.17;;;4.33;;
10894;SDS011;5500;49.886;8.074;2022-11-20T14:17:18;6.37;;;4.67;;
10894;SDS011;5500;49.886;8.074;2022-11-20T14:19:47;10.30;;;8.07;;
10894;SDS011;5500;49.886;8.074;2022-11-20T14:22:19;15.80;;;9.00;;
10894;SDS011;5500;49.886;8.074;2022-11-20T14:24:48;10.20;;;7.57;;
10894;SDS011;5500;49.886;8.074;2022-11-20T14:27:17;7.10;;;5.80;;
10894;SDS011;5500;49.886;8.074;2022-11-20T14:29:46;7.47;;;4.20;;
10894;SDS011;5500;49.886;8.074;2022-11-20T14:32:15;5.30;;;4.10;;
10894;SDS011;5500;49.886;8.074;2022-11-20T14:34:45;7.43;;;4.17;;
10894;SDS011;5500;49.886;8.074;2022-11-20T14:37:19;8.63;;;3.77;;
10894;SDS011;5500;49.886;8.074;2022-11-20T14:39:48;5.73;;;4.00;;
10894;SDS011;5500;49.886;8.074;2022-11-20T14:42:18;8.83;;;4.20;;
10894;SDS011;5500;49.886;8.074;2022-11-20T14:44:47;5.73;;;3.93;;
10894;SDS011;5500;49.886;8.074;2022-11-20T14:47:17;6.67;;;3.93;;
10894;SDS011;5500;49.886;8.074;2022-11-20T14:49:46;4.70;;;3.53;;
10894;SDS011;5500;49.886;8.074;2022-11-20T14:52:15;8.30;;;3.43;;
10894;SDS011;5500;49.886;8.074;2022-11-20T14:54:45;8.73;;;3.70;;
10894;SDS011;5500;49.886;8.074;2022-11-20T14:57:24;4.10;;;3.67;;
10894;SDS011;5500;49.886;8.074;2022-11-20T15:00:04;8.30;;;4.07;;